Cannon River (Minnesota), Welch (05355200)

StateMinnesotaLatestUnknown (616 cfs)
RiverCannon RiverRatingObservedEstimated
Updated2026-05-10 9:00 (1 hour ago)Flood - The river is flooding. Obstacles can be treacherous or deadly. The river should be avoided at this stage for casual trips and definitely for the inexperienced. Trips should be attempted only with protective gear and equipment.Flood(none)(none)
Discharge616 cfs (median: 722 cfs)High - The river is high and potentially dangerous, especially for the young and / or inexperienced. Normal stream obstacles are sometimes difficult to navigate. Extended distances can be attempted, but canoe travel may not be advisable.High(none)(none)
Height4.34 feetGood - Conditions are ideal for a canoe or kayak. Boats typically will drag on fewer than one-quarter of riffles, if at all, and portages are unnecessary or rare. Normal float lengths can be attempted without a problem.Good(none)(none)
TrendRising (falling over 24 hours)Low - River is low but can still be floated. Some riffles are okay but most come with significant dragging and might need a portage. Float lengths should be reduced to accommodate low flow, dragging, and portages.Low(none)(none)
USGSExternal icon USGS Site (External icon Duck Duck Go Maps)Poor - River is too low to float comfortably. Most or all riffles will drag or must be portaged and some obstacles (such as slick shelf rock) cause undue problems. Avoid the river at this stage for casual paddling trips.Poor(none)(none)

Trending Data

Plot Image

Trips for Cannon River (Minnesota), Welch (05355200)

DateStartEndDistanceConditionDischargeHeightFishingDetails
Click for details2022-07-29 Cannon Falls Miesville Ravine Park Total trip distance: 8.0 miles8.0 Good 380 3.82 None NoneNone Turner, SkipTurner, Skip NoneNone USGS Gauge Data:
Welch (05355200)
Discharge: 380
Height: 3.82
<b>USGS Gauge Data:</b></br />Welch (05355200)<br />Discharge: 380<br />Height: 3.82
Source: TurnerSource: Turner

A total of 1 rows are displayed.

Trip Summary for Cannon River (Minnesota), Welch (05355200)

Miles8
Trips1
People1
Dates1
Years1
Months1
Rows1
Sources1

Condition Descriptions

Fishing Conditions

Fish Species

Notes

Classic Trip List

The classic River Trips application is still available for use. It is updated with the new system using a data retrofit. It is no longer maintained. The original River Trips application is no longer updated (as of 1 Dec 2016) but can be checked for errors or for the condition of the data before it was converted to the new system.

Gauge Data Table

ObservationHeightDischargeMaximum
Discharge
Minimum
Discharge
Mean
Discharge
P05P10P20P25P50
(Median)
P75P80P90P95
2026-05-10 09:00 4.34 616 4200 (2019) 85 (1957) 1010 103 169 334 390 722 1570 1680 2320 3060
2026-05-10 08:00 4.33 613 4200 (2019) 85 (1957) 1010 103 169 334 390 722 1570 1680 2320 3060
2026-05-10 07:00 4.33 610 4200 (2019) 85 (1957) 1010 103 169 334 390 722 1570 1680 2320 3060
2026-05-10 06:00 4.32 606 4200 (2019) 85 (1957) 1010 103 169 334 390 722 1570 1680 2320 3060
2026-05-10 05:00 4.32 605 4200 (2019) 85 (1957) 1010 103 169 334 390 722 1570 1680 2320 3060
2026-05-10 04:00 4.32 603 4200 (2019) 85 (1957) 1010 103 169 334 390 722 1570 1680 2320 3060
2026-05-10 03:00 4.32 602 4200 (2019) 85 (1957) 1010 103 169 334 390 722 1570 1680 2320 3060
2026-05-10 02:00 4.32 602 4200 (2019) 85 (1957) 1010 103 169 334 390 722 1570 1680 2320 3060
2026-05-10 01:00 4.32 603 4200 (2019) 85 (1957) 1010 103 169 334 390 722 1570 1680 2320 3060
2026-05-10 00:00 4.32 606 4200 (2019) 85 (1957) 1010 103 169 334 390 722 1570 1680 2320 3060
2026-05-09 23:00 4.32 608 4200 (2019) 85 (1957) 1010 103 169 334 390 722 1570 1680 2320 3060
2026-05-09 22:00 4.33 611 3840 (2001) 88 (1957) 1010 121 134 283 353 767 1500 1690 2420 3340
2026-05-09 21:00 4.34 614 3840 (2001) 88 (1957) 1010 121 134 283 353 767 1500 1690 2420 3340
2026-05-09 20:00 4.34 616 3840 (2001) 88 (1957) 1010 121 134 283 353 767 1500 1690 2420 3340
2026-05-09 19:00 4.35 621 3840 (2001) 88 (1957) 1010 121 134 283 353 767 1500 1690 2420 3340
2026-05-09 18:00 4.36 626 3840 (2001) 88 (1957) 1010 121 134 283 353 767 1500 1690 2420 3340
2026-05-09 17:00 4.36 629 3840 (2001) 88 (1957) 1010 121 134 283 353 767 1500 1690 2420 3340
2026-05-09 16:00 4.37 635 3840 (2001) 88 (1957) 1010 121 134 283 353 767 1500 1690 2420 3340
2026-05-09 15:00 4.38 638 3840 (2001) 88 (1957) 1010 121 134 283 353 767 1500 1690 2420 3340
2026-05-09 14:00 4.38 640 3840 (2001) 88 (1957) 1010 121 134 283 353 767 1500 1690 2420 3340
2026-05-09 13:00 4.38 638 3840 (2001) 88 (1957) 1010 121 134 283 353 767 1500 1690 2420 3340
2026-05-09 12:00 4.37 636 3840 (2001) 88 (1957) 1010 121 134 283 353 767 1500 1690 2420 3340
2026-05-09 11:00 4.37 634 3840 (2001) 88 (1957) 1010 121 134 283 353 767 1500 1690 2420 3340
2026-05-09 10:00 4.36 632 3840 (2001) 88 (1957) 1010 121 134 283 353 767 1500 1690 2420 3340
2026-05-09 09:00 4.36 627 3840 (2001) 88 (1957) 1010 121 134 283 353 767 1500 1690 2420 3340
2026-05-09 08:00 4.35 625 3840 (2001) 88 (1957) 1010 121 134 283 353 767 1500 1690 2420 3340
2026-05-09 07:00 4.34 620 3840 (2001) 88 (1957) 1010 121 134 283 353 767 1500 1690 2420 3340
2026-05-09 06:00 4.34 616 3840 (2001) 88 (1957) 1010 121 134 283 353 767 1500 1690 2420 3340
2026-05-09 05:00 4.33 613 3840 (2001) 88 (1957) 1010 121 134 283 353 767 1500 1690 2420 3340
2026-05-09 04:00 4.33 610 3840 (2001) 88 (1957) 1010 121 134 283 353 767 1500 1690 2420 3340
2026-05-09 03:00 4.32 606 3840 (2001) 88 (1957) 1010 121 134 283 353 767 1500 1690 2420 3340
2026-05-09 02:00 4.32 605 3840 (2001) 88 (1957) 1010 121 134 283 353 767 1500 1690 2420 3340
2026-05-09 01:00 4.32 605 3840 (2001) 88 (1957) 1010 121 134 283 353 767 1500 1690 2420 3340
2026-05-09 00:00 4.32 603 3840 (2001) 88 (1957) 1010 121 134 283 353 767 1500 1690 2420 3340
2026-05-08 23:00 4.32 603 3840 (2001) 88 (1957) 1010 121 134 283 353 767 1500 1690 2420 3340
2026-05-08 22:00 4.32 606 4260 (2001) 75 (1934) 1030 97 188 291 368 770 1460 1630 2260 3110
2026-05-08 21:00 4.33 611 4260 (2001) 75 (1934) 1030 97 188 291 368 770 1460 1630 2260 3110
2026-05-08 20:00 4.33 613 4260 (2001) 75 (1934) 1030 97 188 291 368 770 1460 1630 2260 3110
2026-05-08 19:00 4.34 617 4260 (2001) 75 (1934) 1030 97 188 291 368 770 1460 1630 2260 3110
2026-05-08 18:00 4.35 621 4260 (2001) 75 (1934) 1030 97 188 291 368 770 1460 1630 2260 3110
2026-05-08 17:00 4.36 629 4260 (2001) 75 (1934) 1030 97 188 291 368 770 1460 1630 2260 3110
2026-05-08 16:00 4.37 636 4260 (2001) 75 (1934) 1030 97 188 291 368 770 1460 1630 2260 3110
2026-05-08 15:00 4.38 643 4260 (2001) 75 (1934) 1030 97 188 291 368 770 1460 1630 2260 3110
2026-05-08 14:00 4.39 649 4260 (2001) 75 (1934) 1030 97 188 291 368 770 1460 1630 2260 3110
2026-05-08 13:00 4.40 652 4260 (2001) 75 (1934) 1030 97 188 291 368 770 1460 1630 2260 3110
2026-05-08 12:00 4.40 652 4260 (2001) 75 (1934) 1030 97 188 291 368 770 1460 1630 2260 3110
2026-05-08 11:00 4.40 650 4260 (2001) 75 (1934) 1030 97 188 291 368 770 1460 1630 2260 3110
2026-05-08 10:00 4.39 647 4260 (2001) 75 (1934) 1030 97 188 291 368 770 1460 1630 2260 3110
2026-05-08 09:00 4.38 643 4260 (2001) 75 (1934) 1030 97 188 291 368 770 1460 1630 2260 3110
2026-05-08 08:00 4.38 638 4260 (2001) 75 (1934) 1030 97 188 291 368 770 1460 1630 2260 3110
2026-05-08 07:00 4.37 634 4260 (2001) 75 (1934) 1030 97 188 291 368 770 1460 1630 2260 3110
2026-05-08 06:00 4.36 627 4260 (2001) 75 (1934) 1030 97 188 291 368 770 1460 1630 2260 3110
2026-05-08 05:00 4.34 620 4260 (2001) 75 (1934) 1030 97 188 291 368 770 1460 1630 2260 3110
2026-05-08 04:00 4.34 614 4260 (2001) 75 (1934) 1030 97 188 291 368 770 1460 1630 2260 3110
2026-05-08 03:00 4.32 608 4260 (2001) 75 (1934) 1030 97 188 291 368 770 1460 1630 2260 3110
2026-05-08 02:00 4.32 603 4260 (2001) 75 (1934) 1030 97 188 291 368 770 1460 1630 2260 3110
2026-05-08 01:00 4.32 602 4260 (2001) 75 (1934) 1030 97 188 291 368 770 1460 1630 2260 3110
2026-05-08 00:00 4.31 601 4260 (2001) 75 (1934) 1030 97 188 291 368 770 1460 1630 2260 3110
2026-05-07 23:00 4.31 599 4260 (2001) 75 (1934) 1030 97 188 291 368 770 1460 1630 2260 3110
2026-05-07 22:00 4.31 598 4720 (2013) 51 (1934) 1060 129 209 298 383 795 1450 1670 2410 3610
2026-05-07 21:00 4.30 596 4720 (2013) 51 (1934) 1060 129 209 298 383 795 1450 1670 2410 3610
2026-05-07 20:00 4.30 595 4720 (2013) 51 (1934) 1060 129 209 298 383 795 1450 1670 2410 3610
2026-05-07 19:00 4.30 595 4720 (2013) 51 (1934) 1060 129 209 298 383 795 1450 1670 2410 3610
2026-05-07 18:00 4.30 596 4720 (2013) 51 (1934) 1060 129 209 298 383 795 1450 1670 2410 3610
2026-05-07 17:00 4.31 601 4720 (2013) 51 (1934) 1060 129 209 298 383 795 1450 1670 2410 3610
2026-05-07 16:00 4.33 610 4720 (2013) 51 (1934) 1060 129 209 298 383 795 1450 1670 2410 3610
2026-05-07 15:00 4.35 623 4720 (2013) 51 (1934) 1060 129 209 298 383 795 1450 1670 2410 3610
2026-05-07 14:00 4.38 644 4720 (2013) 51 (1934) 1060 129 209 298 383 795 1450 1670 2410 3610
2026-05-07 13:00 4.44 675 4720 (2013) 51 (1934) 1060 129 209 298 383 795 1450 1670 2410 3610
2026-05-07 12:00 4.49 709 4720 (2013) 51 (1934) 1060 129 209 298 383 795 1450 1670 2410 3610
2026-05-07 11:00 4.51 720 4720 (2013) 51 (1934) 1060 129 209 298 383 795 1450 1670 2410 3610
2026-05-07 10:00 4.51 720 4720 (2013) 51 (1934) 1060 129 209 298 383 795 1450 1670 2410 3610
2026-05-07 09:00 4.50 717 4720 (2013) 51 (1934) 1060 129 209 298 383 795 1450 1670 2410 3610
2026-05-07 08:00 4.50 716 4720 (2013) 51 (1934) 1060 129 209 298 383 795 1450 1670 2410 3610
2026-05-07 07:00 4.50 713 4720 (2013) 51 (1934) 1060 129 209 298 383 795 1450 1670 2410 3610
2026-05-07 06:00 4.49 711 4720 (2013) 51 (1934) 1060 129 209 298 383 795 1450 1670 2410 3610
2026-05-07 05:00 4.49 711 4720 (2013) 51 (1934) 1060 129 209 298 383 795 1450 1670 2410 3610
2026-05-07 04:00 4.49 709 4720 (2013) 51 (1934) 1060 129 209 298 383 795 1450 1670 2410 3610
2026-05-07 03:00 4.49 709 4720 (2013) 51 (1934) 1060 129 209 298 383 795 1450 1670 2410 3610
2026-05-07 02:00 4.49 711 4720 (2013) 51 (1934) 1060 129 209 298 383 795 1450 1670 2410 3610
2026-05-07 01:00 4.50 713 4720 (2013) 51 (1934) 1060 129 209 298 383 795 1450 1670 2410 3610
2026-05-07 00:00 4.50 716 4720 (2013) 51 (1934) 1060 129 209 298 383 795 1450 1670 2410 3610
2026-05-06 23:00 4.50 719 4720 (2013) 51 (1934) 1060 129 209 298 383 795 1450 1670 2410 3610
2026-05-06 22:00 4.51 723 4670 (2013) 86 (1957) 1060 120 167 318 401 782 1420 1700 2700 3040
2026-05-06 21:00 4.52 731 4670 (2013) 86 (1957) 1060 120 167 318 401 782 1420 1700 2700 3040
2026-05-06 20:00 4.53 734 4670 (2013) 86 (1957) 1060 120 167 318 401 782 1420 1700 2700 3040
2026-05-06 19:00 4.54 738 4670 (2013) 86 (1957) 1060 120 167 318 401 782 1420 1700 2700 3040
2026-05-06 18:00 4.54 743 4670 (2013) 86 (1957) 1060 120 167 318 401 782 1420 1700 2700 3040
2026-05-06 17:00 4.54 745 4670 (2013) 86 (1957) 1060 120 167 318 401 782 1420 1700 2700 3040
2026-05-06 16:00 4.55 748 4670 (2013) 86 (1957) 1060 120 167 318 401 782 1420 1700 2700 3040
2026-05-06 15:00 4.55 749 4670 (2013) 86 (1957) 1060 120 167 318 401 782 1420 1700 2700 3040
2026-05-06 14:00 4.56 751 4670 (2013) 86 (1957) 1060 120 167 318 401 782 1420 1700 2700 3040
2026-05-06 13:00 4.56 755 4670 (2013) 86 (1957) 1060 120 167 318 401 782 1420 1700 2700 3040
2026-05-06 12:00 4.56 755 4670 (2013) 86 (1957) 1060 120 167 318 401 782 1420 1700 2700 3040
2026-05-06 11:00 4.56 755 4670 (2013) 86 (1957) 1060 120 167 318 401 782 1420 1700 2700 3040
2026-05-06 10:00 4.56 751 4670 (2013) 86 (1957) 1060 120 167 318 401 782 1420 1700 2700 3040
2026-05-06 09:00 4.55 749 4670 (2013) 86 (1957) 1060 120 167 318 401 782 1420 1700 2700 3040
2026-05-06 08:00 4.55 748 4670 (2013) 86 (1957) 1060 120 167 318 401 782 1420 1700 2700 3040
2026-05-06 07:00 4.55 746 4670 (2013) 86 (1957) 1060 120 167 318 401 782 1420 1700 2700 3040
2026-05-06 06:00 4.54 743 4670 (2013) 86 (1957) 1060 120 167 318 401 782 1420 1700 2700 3040
2026-05-06 05:00 4.54 742 4670 (2013) 86 (1957) 1060 120 167 318 401 782 1420 1700 2700 3040
2026-05-06 04:00 4.54 742 4670 (2013) 86 (1957) 1060 120 167 318 401 782 1420 1700 2700 3040
2026-05-06 03:00 4.54 742 4670 (2013) 86 (1957) 1060 120 167 318 401 782 1420 1700 2700 3040
2026-05-06 02:00 4.54 742 4670 (2013) 86 (1957) 1060 120 167 318 401 782 1420 1700 2700 3040
2026-05-06 01:00 4.54 742 4670 (2013) 86 (1957) 1060 120 167 318 401 782 1420 1700 2700 3040
2026-05-06 00:00 4.54 742 4670 (2013) 86 (1957) 1060 120 167 318 401 782 1420 1700 2700 3040
2026-05-05 23:00 4.54 742 4670 (2013) 86 (1957) 1060 120 167 318 401 782 1420 1700 2700 3040
2026-05-05 22:00 4.54 745 5790 (1944) 66 (1935) 1090 105 190 340 372 799 1400 1710 2560 3110
2026-05-05 21:00 4.55 746 5790 (1944) 66 (1935) 1090 105 190 340 372 799 1400 1710 2560 3110
2026-05-05 20:00 4.55 748 5790 (1944) 66 (1935) 1090 105 190 340 372 799 1400 1710 2560 3110
2026-05-05 19:00 4.55 749 5790 (1944) 66 (1935) 1090 105 190 340 372 799 1400 1710 2560 3110
2026-05-05 18:00 4.56 751 5790 (1944) 66 (1935) 1090 105 190 340 372 799 1400 1710 2560 3110
2026-05-05 17:00 4.56 755 5790 (1944) 66 (1935) 1090 105 190 340 372 799 1400 1710 2560 3110
2026-05-05 16:00 4.57 759 5790 (1944) 66 (1935) 1090 105 190 340 372 799 1400 1710 2560 3110
2026-05-05 15:00 4.58 765 5790 (1944) 66 (1935) 1090 105 190 340 372 799 1400 1710 2560 3110
2026-05-05 14:00 4.58 769 5790 (1944) 66 (1935) 1090 105 190 340 372 799 1400 1710 2560 3110
2026-05-05 13:00 4.59 774 5790 (1944) 66 (1935) 1090 105 190 340 372 799 1400 1710 2560 3110
2026-05-05 12:00 4.59 776 5790 (1944) 66 (1935) 1090 105 190 340 372 799 1400 1710 2560 3110
2026-05-05 11:00 4.59 776 5790 (1944) 66 (1935) 1090 105 190 340 372 799 1400 1710 2560 3110
2026-05-05 10:00 4.59 774 5790 (1944) 66 (1935) 1090 105 190 340 372 799 1400 1710 2560 3110
2026-05-05 09:00 4.59 774 5790 (1944) 66 (1935) 1090 105 190 340 372 799 1400 1710 2560 3110
2026-05-05 08:00 4.59 774 5790 (1944) 66 (1935) 1090 105 190 340 372 799 1400 1710 2560 3110
2026-05-05 07:00 4.58 771 5790 (1944) 66 (1935) 1090 105 190 340 372 799 1400 1710 2560 3110
2026-05-05 06:00 4.58 769 5790 (1944) 66 (1935) 1090 105 190 340 372 799 1400 1710 2560 3110
2026-05-05 05:00 4.58 766 5790 (1944) 66 (1935) 1090 105 190 340 372 799 1400 1710 2560 3110
2026-05-05 04:00 4.58 765 5790 (1944) 66 (1935) 1090 105 190 340 372 799 1400 1710 2560 3110
2026-05-05 03:00 4.57 763 5790 (1944) 66 (1935) 1090 105 190 340 372 799 1400 1710 2560 3110
2026-05-05 02:00 4.57 763 5790 (1944) 66 (1935) 1090 105 190 340 372 799 1400 1710 2560 3110
2026-05-05 01:00 4.57 763 5790 (1944) 66 (1935) 1090 105 190 340 372 799 1400 1710 2560 3110
2026-05-05 00:00 4.58 765 5790 (1944) 66 (1935) 1090 105 190 340 372 799 1400 1710 2560 3110
2026-05-04 23:00 4.58 766 5790 (1944) 66 (1935) 1090 105 190 340 372 799 1400 1710 2560 3110
2026-05-04 22:00 4.58 768 7670 (1944) 70 (1957) 1150 163 219 321 372 820 1370 1870 2780 3170
2026-05-04 21:00 4.58 769 7670 (1944) 70 (1957) 1150 163 219 321 372 820 1370 1870 2780 3170
2026-05-04 20:00 4.59 772 7670 (1944) 70 (1957) 1150 163 219 321 372 820 1370 1870 2780 3170
2026-05-04 19:00 4.59 774 7670 (1944) 70 (1957) 1150 163 219 321 372 820 1370 1870 2780 3170
2026-05-04 18:00 4.59 776 7670 (1944) 70 (1957) 1150 163 219 321 372 820 1370 1870 2780 3170
2026-05-04 17:00 4.60 778 7670 (1944) 70 (1957) 1150 163 219 321 372 820 1370 1870 2780 3170
2026-05-04 16:00 4.60 781 7670 (1944) 70 (1957) 1150 163 219 321 372 820 1370 1870 2780 3170
2026-05-04 15:00 4.61 789 7670 (1944) 70 (1957) 1150 163 219 321 372 820 1370 1870 2780 3170
2026-05-04 14:00 4.62 796 7670 (1944) 70 (1957) 1150 163 219 321 372 820 1370 1870 2780 3170
2026-05-04 13:00 799 7670 (1944) 70 (1957) 1150 163 219 321 372 820 1370 1870 2780 3170
2026-05-04 12:00 4.62 796 7670 (1944) 70 (1957) 1150 163 219 321 372 820 1370 1870 2780 3170
2026-05-04 11:00 4.62 795 7670 (1944) 70 (1957) 1150 163 219 321 372 820 1370 1870 2780 3170
2026-05-04 10:00 4.62 795 7670 (1944) 70 (1957) 1150 163 219 321 372 820 1370 1870 2780 3170
2026-05-04 09:00 4.62 795 7670 (1944) 70 (1957) 1150 163 219 321 372 820 1370 1870 2780 3170
2026-05-04 08:00 4.62 793 7670 (1944) 70 (1957) 1150 163 219 321 372 820 1370 1870 2780 3170
2026-05-04 07:00 4.61 789 7670 (1944) 70 (1957) 1150 163 219 321 372 820 1370 1870 2780 3170
2026-05-04 06:00 4.60 784 7670 (1944) 70 (1957) 1150 163 219 321 372 820 1370 1870 2780 3170
2026-05-04 05:00 4.60 779 7670 (1944) 70 (1957) 1150 163 219 321 372 820 1370 1870 2780 3170
2026-05-04 04:00 4.59 774 7670 (1944) 70 (1957) 1150 163 219 321 372 820 1370 1870 2780 3170
2026-05-04 03:00 4.58 769 7670 (1944) 70 (1957) 1150 163 219 321 372 820 1370 1870 2780 3170
2026-05-04 02:00 4.58 768 7670 (1944) 70 (1957) 1150 163 219 321 372 820 1370 1870 2780 3170
2026-05-04 01:00 4.58 768 7670 (1944) 70 (1957) 1150 163 219 321 372 820 1370 1870 2780 3170
2026-05-04 00:00 4.58 769 7670 (1944) 70 (1957) 1150 163 219 321 372 820 1370 1870 2780 3170
2026-05-03 23:00 4.58 771 7670 (1944) 70 (1957) 1150 163 219 321 372 820 1370 1870 2780 3170
2026-05-03 22:00 4.58 771 4840 (1944) 51 (1934) 1140 93 168 314 357 843 1450 1950 2760 3110
2026-05-03 21:00 4.58 771 4840 (1944) 51 (1934) 1140 93 168 314 357 843 1450 1950 2760 3110
2026-05-03 20:00 4.59 772 4840 (1944) 51 (1934) 1140 93 168 314 357 843 1450 1950 2760 3110
2026-05-03 19:00 4.59 772 4840 (1944) 51 (1934) 1140 93 168 314 357 843 1450 1950 2760 3110
2026-05-03 18:00 4.59 776 4840 (1944) 51 (1934) 1140 93 168 314 357 843 1450 1950 2760 3110
2026-05-03 17:00 4.60 778 4840 (1944) 51 (1934) 1140 93 168 314 357 843 1450 1950 2760 3110
2026-05-03 16:00 4.60 782 4840 (1944) 51 (1934) 1140 93 168 314 357 843 1450 1950 2760 3110
2026-05-03 15:00 4.61 786 4840 (1944) 51 (1934) 1140 93 168 314 357 843 1450 1950 2760 3110
2026-05-03 14:00 4.62 791 4840 (1944) 51 (1934) 1140 93 168 314 357 843 1450 1950 2760 3110
2026-05-03 13:00 4.62 795 4840 (1944) 51 (1934) 1140 93 168 314 357 843 1450 1950 2760 3110
2026-05-03 12:00 4.62 793 4840 (1944) 51 (1934) 1140 93 168 314 357 843 1450 1950 2760 3110
2026-05-03 11:00 4.61 789 4840 (1944) 51 (1934) 1140 93 168 314 357 843 1450 1950 2760 3110
2026-05-03 10:00 4.61 788 4840 (1944) 51 (1934) 1140 93 168 314 357 843 1450 1950 2760 3110
2026-05-03 09:00 4.60 784 4840 (1944) 51 (1934) 1140 93 168 314 357 843 1450 1950 2760 3110
2026-05-03 08:00 4.60 782 4840 (1944) 51 (1934) 1140 93 168 314 357 843 1450 1950 2760 3110
2026-05-03 07:00 4.60 779 4840 (1944) 51 (1934) 1140 93 168 314 357 843 1450 1950 2760 3110
2026-05-03 06:00 4.59 772 4840 (1944) 51 (1934) 1140 93 168 314 357 843 1450 1950 2760 3110
2026-05-03 05:00 4.58 768 4840 (1944) 51 (1934) 1140 93 168 314 357 843 1450 1950 2760 3110
2026-05-03 04:00 4.57 763 4840 (1944) 51 (1934) 1140 93 168 314 357 843 1450 1950 2760 3110
2026-05-03 03:00 4.57 759 4840 (1944) 51 (1934) 1140 93 168 314 357 843 1450 1950 2760 3110
2026-05-03 02:00 4.56 758 4840 (1944) 51 (1934) 1140 93 168 314 357 843 1450 1950 2760 3110
2026-05-03 01:00 4.56 755 4840 (1944) 51 (1934) 1140 93 168 314 357 843 1450 1950 2760 3110
2026-05-03 00:00 4.55 749 4840 (1944) 51 (1934) 1140 93 168 314 357 843 1450 1950 2760 3110
2026-05-02 23:00 4.55 748 4840 (1944) 51 (1934) 1140 93 168 314 357 843 1450 1950 2760 3110

A total of 179 rows are displayed for years 1910 through 2024.